sensor_id;sensor_type;location;lat;lon;timestamp;temperature;humidity
38209;DHT22;24016;52.102;11.584;2024-03-23T00:53:01;7.00;99.90
38209;DHT22;24016;52.102;11.584;2024-03-23T00:55:27;7.10;99.90
38209;DHT22;24016;52.102;11.584;2024-03-23T00:57:52;7.10;99.90
38209;DHT22;24016;52.102;11.584;2024-03-23T01:00:18;7.00;99.90
38209;DHT22;24016;52.102;11.584;2024-03-23T01:02:43;7.00;99.90
38209;DHT22;24016;52.102;11.584;2024-03-23T01:05:09;7.00;99.90
38209;DHT22;24016;52.102;11.584;2024-03-23T01:07:34;7.00;99.90
38209;DHT22;24016;52.102;11.584;2024-03-23T01:10:00;7.00;99.90
38209;DHT22;24016;52.102;11.584;2024-03-23T01:12:25;7.00;99.90
38209;DHT22;24016;52.102;11.584;2024-03-23T01:14:51;7.00;99.90
38209;DHT22;24016;52.102;11.584;2024-03-23T01:17:16;6.90;99.90
38209;DHT22;24016;52.102;11.584;2024-03-23T01:19:42;7.00;99.90
38209;DHT22;24016;52.102;11.584;2024-03-23T01:22:08;6.90;99.90
38209;DHT22;24016;52.102;11.584;2024-03-23T01:24:35;6.90;99.90
38209;DHT22;24016;52.102;11.584;2024-03-23T01:27:01;6.90;99.90
38209;DHT22;24016;52.102;11.584;2024-03-23T01:29:26;6.90;99.90
38209;DHT22;24016;52.102;11.584;2024-03-23T01:31:51;6.90;99.90
38209;DHT22;24016;52.102;11.584;2024-03-23T01:34:17;6.90;99.90
38209;DHT22;24016;52.102;11.584;2024-03-23T01:36:43;6.80;99.90
38209;DHT22;24016;52.102;11.584;2024-03-23T01:39:08;6.90;99.90
38209;DHT22;24016;52.102;11.584;2024-03-23T01:41:37;6.90;99.90
38209;DHT22;24016;52.102;11.584;2024-03-23T01:44:05;6.90;99.90
38209;DHT22;24016;52.102;11.584;2024-03-23T01:46:32;6.90;99.90
38209;DHT22;24016;52.102;11.584;2024-03-23T01:48:58;6.90;99.90
38209;DHT22;24016;52.102;11.584;2024-03-23T01:51:24;6.80;99.90
38209;DHT22;24016;52.102;11.584;2024-03-23T01:53:50;6.80;99.90
38209;DHT22;24016;52.102;11.584;2024-03-23T01:56:16;6.80;99.90
38209;DHT22;24016;52.102;11.584;2024-03-23T01:58:41;6.70;99.90
38209;DHT22;24016;52.102;11.584;2024-03-23T02:01:07;6.70;99.90
38209;DHT22;24016;52.102;11.584;2024-03-23T02:03:32;6.60;99.90
38209;DHT22;24016;52.102;11.584;2024-03-23T02:05:58;6.60;99.90
38209;DHT22;24016;52.102;11.584;2024-03-23T02:08:24;6.50;99.90
38209;DHT22;24016;52.102;11.584;2024-03-23T02:10:50;6.40;99.90
38209;DHT22;24016;52.102;11.584;2024-03-23T02:13:17;6.40;99.90
38209;DHT22;24016;52.102;11.584;2024-03-23T02:15:43;6.40;99.90
38209;DHT22;24016;52.102;11.584;2024-03-23T02:18:10;6.30;99.90
38209;DHT22;24016;52.102;11.584;2024-03-23T02:20:36;6.20;99.90
38209;DHT22;24016;52.102;11.584;2024-03-23T02:23:02;6.10;99.90
38209;DHT22;24016;52.102;11.584;2024-03-23T02:25:28;6.10;99.90
38209;DHT22;24016;52.102;11.584;2024-03-23T02:27:54;6.10;99.90
38209;DHT22;24016;52.102;11.584;2024-03-23T02:30:20;6.10;99.90
38209;DHT22;24016;52.102;11.584;2024-03-23T02:32:46;6.10;99.90
38209;DHT22;24016;52.102;11.584;2024-03-23T02:35:12;6.00;99.90
38209;DHT22;24016;52.102;11.584;2024-03-23T02:37:37;5.90;99.90
38209;DHT22;24016;52.102;11.584;2024-03-23T02:40:03;5.80;99.90
38209;DHT22;24016;52.102;11.584;2024-03-23T02:42:28;5.70;99.90
38209;DHT22;24016;52.102;11.584;2024-03-23T02:44:54;5.70;99.90
38209;DHT22;24016;52.102;11.584;2024-03-23T02:47:20;5.60;99.90
38209;DHT22;24016;52.102;11.584;2024-03-23T02:49:45;5.60;99.90
38209;DHT22;24016;52.102;11.584;2024-03-23T02:52:11;5.50;99.90
38209;DHT22;24016;52.102;11.584;2024-03-23T02:54:36;5.60;99.90
38209;DHT22;24016;52.102;11.584;2024-03-23T02:57:02;5.50;99.90
38209;DHT22;24016;52.102;11.584;2024-03-23T02:59:28;5.50;99.90
38209;DHT22;24016;52.102;11.584;2024-03-23T03:01:53;5.40;99.90
38209;DHT22;24016;52.102;11.584;2024-03-23T03:04:19;5.40;99.90
38209;DHT22;24016;52.102;11.584;2024-03-23T03:06:47;5.40;99.90
38209;DHT22;24016;52.102;11.584;2024-03-23T03:09:13;5.30;99.90
38209;DHT22;24016;52.102;11.584;2024-03-23T03:11:38;5.40;99.90
38209;DHT22;24016;52.102;11.584;2024-03-23T03:14:04;5.40;99.90
38209;DHT22;24016;52.102;11.584;2024-03-23T03:16:32;5.40;99.90
38209;DHT22;24016;52.102;11.584;2024-03-23T03:18:58;5.40;99.90
38209;DHT22;24016;52.102;11.584;2024-03-23T03:21:23;5.40;99.90
38209;DHT22;24016;52.102;11.584;2024-03-23T03:23:49;5.40;99.90
38209;DHT22;24016;52.102;11.584;2024-03-23T03:26:16;5.40;99.90
38209;DHT22;24016;52.102;11.584;2024-03-23T03:28:42;5.30;99.90
38209;DHT22;24016;52.102;11.584;2024-03-23T03:31:08;5.30;99.90
38209;DHT22;24016;52.102;11.584;2024-03-23T03:33:34;5.30;99.90
38209;DHT22;24016;52.102;11.584;2024-03-23T03:35:59;5.30;99.90
38209;DHT22;24016;52.102;11.584;2024-03-23T03:38:25;5.30;99.90
38209;DHT22;24016;52.102;11.584;2024-03-23T03:40:50;5.30;99.90
38209;DHT22;24016;52.102;11.584;2024-03-23T03:43:18;5.10;99.90
38209;DHT22;24016;52.102;11.584;2024-03-23T03:45:51;5.30;99.90
38209;DHT22;24016;52.102;11.584;2024-03-23T03:48:17;5.40;99.90
38209;DHT22;24016;52.102;11.584;2024-03-23T03:50:43;5.40;99.90
38209;DHT22;24016;52.102;11.584;2024-03-23T03:53:08;5.40;99.90
38209;DHT22;24016;52.102;11.584;2024-03-23T03:55:34;5.30;99.90
38209;DHT22;24016;52.102;11.584;2024-03-23T03:57:59;5.30;99.90
38209;DHT22;24016;52.102;11.584;2024-03-23T04:00:25;5.30;99.90
38209;DHT22;24016;52.102;11.584;2024-03-23T04:02:50;5.30;99.90
38209;DHT22;24016;52.102;11.584;2024-03-23T04:05:16;5.30;99.90
38209;DHT22;24016;52.102;11.584;2024-03-23T04:07:43;5.30;99.90
38209;DHT22;24016;52.102;11.584;2024-03-23T04:10:08;5.30;99.90
38209;DHT22;24016;52.102;11.584;2024-03-23T04:12:34;5.20;99.90
38209;DHT22;24016;52.102;11.584;2024-03-23T04:15:00;5.20;99.90
38209;DHT22;24016;52.102;11.584;2024-03-23T04:17:29;5.30;99.90
38209;DHT22;24016;52.102;11.584;2024-03-23T04:19:57;5.30;99.90
38209;DHT22;24016;52.102;11.584;2024-03-23T04:22:23;5.30;99.90
38209;DHT22;24016;52.102;11.584;2024-03-23T04:24:53;5.30;99.90
38209;DHT22;24016;52.102;11.584;2024-03-23T04:27:19;5.30;99.90
38209;DHT22;24016;52.102;11.584;2024-03-23T04:29:51;5.30;99.90
38209;DHT22;24016;52.102;11.584;2024-03-23T04:32:17;5.20;99.90
38209;DHT22;24016;52.102;11.584;2024-03-23T04:34:43;5.20;99.90
38209;DHT22;24016;52.102;11.584;2024-03-23T04:37:09;5.20;99.90
38209;DHT22;24016;52.102;11.584;2024-03-23T04:39:38;5.20;99.90
38209;DHT22;24016;52.102;11.584;2024-03-23T04:42:05;5.20;99.90
38209;DHT22;24016;52.102;11.584;2024-03-23T04:44:31;5.20;99.90
38209;DHT22;24016;52.102;11.584;2024-03-23T04:47:00;5.20;99.90
38209;DHT22;24016;52.102;11.584;2024-03-23T04:49:26;5.20;99.90
38209;DHT22;24016;52.102;11.584;2024-03-23T04:51:51;5.20;99.90
38209;DHT22;24016;52.102;11.584;2024-03-23T04:54:17;5.10;99.90
38209;DHT22;24016;52.102;11.584;2024-03-23T04:56:42;5.10;99.90
38209;DHT22;24016;52.102;11.584;2024-03-23T04:59:08;5.10;99.90
38209;DHT22;24016;52.102;11.584;2024-03-23T05:01:34;5.10;99.90
38209;DHT22;24016;52.102;11.584;2024-03-23T05:04:00;5.10;99.90
38209;DHT22;24016;52.102;11.584;2024-03-23T05:06:26;5.10;99.90
38209;DHT22;24016;52.102;11.584;2024-03-23T05:08:52;5.10;99.90
38209;DHT22;24016;52.102;11.584;2024-03-23T05:11:17;5.00;99.90
38209;DHT22;24016;52.102;11.584;2024-03-23T05:13:43;4.90;99.90
38209;DHT22;24016;52.102;11.584;2024-03-23T05:16:09;4.90;99.90
38209;DHT22;24016;52.102;11.584;2024-03-23T05:18:35;4.80;99.90
38209;DHT22;24016;52.102;11.584;2024-03-23T05:21:01;4.80;99.90
38209;DHT22;24016;52.102;11.584;2024-03-23T05:23:28;4.80;99.90
38209;DHT22;24016;52.102;11.584;2024-03-23T05:25:54;4.80;99.90
38209;DHT22;24016;52.102;11.584;2024-03-23T05:28:20;4.80;99.90
38209;DHT22;24016;52.102;11.584;2024-03-23T05:30:55;4.80;99.90
38209;DHT22;24016;52.102;11.584;2024-03-23T05:33:22;4.80;99.90
38209;DHT22;24016;52.102;11.584;2024-03-23T05:35:57;4.80;99.90
38209;DHT22;24016;52.102;11.584;2024-03-23T05:38:22;4.80;99.90
38209;DHT22;24016;52.102;11.584;2024-03-23T05:40:58;4.80;99.90
38209;DHT22;24016;52.102;11.584;2024-03-23T05:43:24;4.80;99.90
38209;DHT22;24016;52.102;11.584;2024-03-23T05:45:56;4.70;99.90
38209;DHT22;24016;52.102;11.584;2024-03-23T05:48:22;4.70;99.90
38209;DHT22;24016;52.102;11.584;2024-03-23T05:50:49;4.70;99.90
38209;DHT22;24016;52.102;11.584;2024-03-23T05:53:18;4.70;99.90
38209;DHT22;24016;52.102;11.584;2024-03-23T05:55:44;4.70;99.90
38209;DHT22;24016;52.102;11.584;2024-03-23T05:58:10;4.70;99.90
38209;DHT22;24016;52.102;11.584;2024-03-23T06:00:35;4.80;99.90
38209;DHT22;24016;52.102;11.584;2024-03-23T06:03:01;4.80;99.90
38209;DHT22;24016;52.102;11.584;2024-03-23T06:05:27;4.80;99.90
38209;DHT22;24016;52.102;11.584;2024-03-23T06:07:52;4.80;99.90
38209;DHT22;24016;52.102;11.584;2024-03-23T06:10:18;4.60;99.90
38209;DHT22;24016;52.102;11.584;2024-03-23T06:12:46;4.70;99.90
38209;DHT22;24016;52.102;11.584;2024-03-23T06:15:12;4.60;99.90
38209;DHT22;24016;52.102;11.584;2024-03-23T06:17:37;4.60;99.90
38209;DHT22;24016;52.102;11.584;2024-03-23T06:20:03;4.60;99.90
38209;DHT22;24016;52.102;11.584;2024-03-23T06:22:29;4.60;99.90
38209;DHT22;24016;52.102;11.584;2024-03-23T06:24:55;4.60;99.90
38209;DHT22;24016;52.102;11.584;2024-03-23T06:27:20;4.70;99.90
38209;DHT22;24016;52.102;11.584;2024-03-23T06:29:46;4.60;99.90
38209;DHT22;24016;52.102;11.584;2024-03-23T06:32:11;4.60;99.90
38209;DHT22;24016;52.102;11.584;2024-03-23T06:34:37;4.60;99.90
38209;DHT22;24016;52.102;11.584;2024-03-23T06:37:02;4.70;99.90
38209;DHT22;24016;52.102;11.584;2024-03-23T06:39:28;4.70;99.90
38209;DHT22;24016;52.102;11.584;2024-03-23T06:41:55;4.70;99.90
38209;DHT22;24016;52.102;11.584;2024-03-23T06:44:22;4.70;99.90
38209;DHT22;24016;52.102;11.584;2024-03-23T06:46:47;4.60;99.90
38209;DHT22;24016;52.102;11.584;2024-03-23T06:49:14;4.60;99.90
38209;DHT22;24016;52.102;11.584;2024-03-23T06:51:40;4.60;99.90
38209;DHT22;24016;52.102;11.584;2024-03-23T06:54:06;4.60;99.90
38209;DHT22;24016;52.102;11.584;2024-03-23T06:56:31;4.60;99.90
38209;DHT22;24016;52.102;11.584;2024-03-23T06:58:58;4.60;99.90
38209;DHT22;24016;52.102;11.584;2024-03-23T07:01:23;4.60;99.90
38209;DHT22;24016;52.102;11.584;2024-03-23T07:03:49;4.60;99.90
38209;DHT22;24016;52.102;11.584;2024-03-23T07:06:15;4.60;99.90
38209;DHT22;24016;52.102;11.584;2024-03-23T07:08:40;4.70;99.90
38209;DHT22;24016;52.102;11.584;2024-03-23T07:11:06;4.70;99.90
38209;DHT22;24016;52.102;11.584;2024-03-23T07:13:32;4.70;99.90
38209;DHT22;24016;52.102;11.584;2024-03-23T07:15:57;4.60;99.90
38209;DHT22;24016;52.102;11.584;2024-03-23T07:18:25;4.60;99.90
38209;DHT22;24016;52.102;11.584;2024-03-23T07:20:57;4.60;99.90
38209;DHT22;24016;52.102;11.584;2024-03-23T07:23:26;4.60;99.90
38209;DHT22;24016;52.102;11.584;2024-03-23T07:26:05;4.70;99.90
38209;DHT22;24016;52.102;11.584;2024-03-23T07:28:31;4.70;99.90
38209;DHT22;24016;52.102;11.584;2024-03-23T07:31:05;4.70;99.90
38209;DHT22;24016;52.102;11.584;2024-03-23T07:33:32;4.70;99.90
38209;DHT22;24016;52.102;11.584;2024-03-23T07:35:58;4.70;99.90
38209;DHT22;24016;52.102;11.584;2024-03-23T07:38:27;4.50;99.90
38209;DHT22;24016;52.102;11.584;2024-03-23T07:41:06;4.50;99.90
38209;DHT22;24016;52.102;11.584;2024-03-23T07:43:32;4.50;99.90
38209;DHT22;24016;52.102;11.584;2024-03-23T07:45:58;4.40;99.90
38209;DHT22;24016;52.102;11.584;2024-03-23T07:48:24;4.50;99.90
38209;DHT22;24016;52.102;11.584;2024-03-23T07:51:03;4.50;99.90
38209;DHT22;24016;52.102;11.584;2024-03-23T07:53:30;4.50;99.90
38209;DHT22;24016;52.102;11.584;2024-03-23T07:56:05;4.40;99.90
38209;DHT22;24016;52.102;11.584;2024-03-23T07:58:31;4.50;99.90
38209;DHT22;24016;52.102;11.584;2024-03-23T08:01:01;4.50;99.90
38209;DHT22;24016;52.102;11.584;2024-03-23T08:03:28;4.40;99.90
38209;DHT22;24016;52.102;11.584;2024-03-23T08:05:54;4.50;99.90
38209;DHT22;24016;52.102;11.584;2024-03-23T08:08:19;4.50;99.90
38209;DHT22;24016;52.102;11.584;2024-03-23T08:10:51;4.50;99.90
38209;DHT22;24016;52.102;11.584;2024-03-23T08:13:17;4.50;99.90
38209;DHT22;24016;52.102;11.584;2024-03-23T08:15:43;4.60;99.90
38209;DHT22;24016;52.102;11.584;2024-03-23T08:18:11;4.50;99.90
38209;DHT22;24016;52.102;11.584;2024-03-23T08:20:37;4.50;99.90
38209;DHT22;24016;52.102;11.584;2024-03-23T08:23:02;4.50;99.90
38209;DHT22;24016;52.102;11.584;2024-03-23T08:25:31;4.60;99.90
38209;DHT22;24016;52.102;11.584;2024-03-23T08:27:57;4.60;99.90
38209;DHT22;24016;52.102;11.584;2024-03-23T08:30:23;4.50;99.90
38209;DHT22;24016;52.102;11.584;2024-03-23T08:32:49;4.50;99.90
38209;DHT22;24016;52.102;11.584;2024-03-23T08:35:15;4.50;99.90
38209;DHT22;24016;52.102;11.584;2024-03-23T08:37:41;4.50;99.90
38209;DHT22;24016;52.102;11.584;2024-03-23T08:40:07;4.50;99.90
38209;DHT22;24016;52.102;11.584;2024-03-23T08:42:34;4.50;99.90
38209;DHT22;24016;52.102;11.584;2024-03-23T08:44:59;4.60;99.90
38209;DHT22;24016;52.102;11.584;2024-03-23T08:47:25;4.50;99.90
38209;DHT22;24016;52.102;11.584;2024-03-23T08:49:50;4.50;99.90
38209;DHT22;24016;52.102;11.584;2024-03-23T08:52:16;4.50;99.90
38209;DHT22;24016;52.102;11.584;2024-03-23T08:54:42;4.30;99.90
38209;DHT22;24016;52.102;11.584;2024-03-23T08:57:07;4.30;99.90
38209;DHT22;24016;52.102;11.584;2024-03-23T08:59:33;4.30;99.90
38209;DHT22;24016;52.102;11.584;2024-03-23T09:01:59;4.30;99.90
38209;DHT22;24016;52.102;11.584;2024-03-23T09:04:24;4.30;99.90
38209;DHT22;24016;52.102;11.584;2024-03-23T09:06:50;4.30;99.90
38209;DHT22;24016;52.102;11.584;2024-03-23T09:09:16;4.30;99.90
38209;DHT22;24016;52.102;11.584;2024-03-23T09:11:42;4.40;99.90
38209;DHT22;24016;52.102;11.584;2024-03-23T09:14:07;4.30;99.90
38209;DHT22;24016;52.102;11.584;2024-03-23T09:16:34;4.40;99.90
38209;DHT22;24016;52.102;11.584;2024-03-23T09:18:59;4.40;99.90
38209;DHT22;24016;52.102;11.584;2024-03-23T09:21:25;4.50;99.90
38209;DHT22;24016;52.102;11.584;2024-03-23T09:23:50;4.70;99.90
38209;DHT22;24016;52.102;11.584;2024-03-23T09:26:16;4.70;99.90
38209;DHT22;24016;52.102;11.584;2024-03-23T09:28:41;4.70;99.90
38209;DHT22;24016;52.102;11.584;2024-03-23T09:31:08;4.50;99.90
38209;DHT22;24016;52.102;11.584;2024-03-23T09:33:34;4.50;99.90
38209;DHT22;24016;52.102;11.584;2024-03-23T09:36:04;4.50;99.90
38209;DHT22;24016;52.102;11.584;2024-03-23T09:38:29;4.40;99.90
38209;DHT22;24016;52.102;11.584;2024-03-23T09:40:56;4.40;99.90
38209;DHT22;24016;52.102;11.584;2024-03-23T09:43:21;4.50;99.90
38209;DHT22;24016;52.102;11.584;2024-03-23T09:45:48;4.50;99.90
38209;DHT22;24016;52.102;11.584;2024-03-23T09:48:14;4.60;99.90
38209;DHT22;24016;52.102;11.584;2024-03-23T09:50:41;4.60;99.90
38209;DHT22;24016;52.102;11.584;2024-03-23T09:53:08;4.60;99.90
38209;DHT22;24016;52.102;11.584;2024-03-23T09:55:34;4.70;99.90
38209;DHT22;24016;52.102;11.584;2024-03-23T09:58:03;4.80;99.90
38209;DHT22;24016;52.102;11.584;2024-03-23T10:00:32;4.90;99.90
38209;DHT22;24016;52.102;11.584;2024-03-23T10:02:58;5.00;99.90
38209;DHT22;24016;52.102;11.584;2024-03-23T10:05:27;5.00;99.90
38209;DHT22;24016;52.102;11.584;2024-03-23T10:07:53;5.10;99.90
38209;DHT22;24016;52.102;11.584;2024-03-23T10:10:19;5.20;99.90
38209;DHT22;24016;52.102;11.584;2024-03-23T10:12:47;5.30;99.90
38209;DHT22;24016;52.102;11.584;2024-03-23T10:15:23;5.40;99.90
38209;DHT22;24016;52.102;11.584;2024-03-23T10:17:49;5.40;99.90
38209;DHT22;24016;52.102;11.584;2024-03-23T10:20:22;5.40;99.90
38209;DHT22;24016;52.102;11.584;2024-03-23T10:22:51;5.30;99.90
38209;DHT22;24016;52.102;11.584;2024-03-23T10:25:17;5.30;99.90
38209;DHT22;24016;52.102;11.584;2024-03-23T10:27:43;5.30;99.90
38209;DHT22;24016;52.102;11.584;2024-03-23T10:30:10;5.40;99.90
38209;DHT22;24016;52.102;11.584;2024-03-23T10:32:37;5.30;99.90
38209;DHT22;24016;52.102;11.584;2024-03-23T10:35:21;5.30;99.90
38209;DHT22;24016;52.102;11.584;2024-03-23T10:37:48;5.40;99.90
38209;DHT22;24016;52.102;11.584;2024-03-23T10:40:15;5.40;99.90
38209;DHT22;24016;52.102;11.584;2024-03-23T10:42:41;5.50;99.90
38209;DHT22;24016;52.102;11.584;2024-03-23T10:45:07;5.70;99.90
38209;DHT22;24016;52.102;11.584;2024-03-23T10:47:35;5.80;99.90
38209;DHT22;24016;52.102;11.584;2024-03-23T10:50:03;5.90;99.90
38209;DHT22;24016;52.102;11.584;2024-03-23T10:52:28;5.90;99.90
38209;DHT22;24016;52.102;11.584;2024-03-23T10:54:55;6.10;99.90
38209;DHT22;24016;52.102;11.584;2024-03-23T10:57:45;6.10;99.90
38209;DHT22;24016;52.102;11.584;2024-03-23T11:00:14;5.70;99.90
38209;DHT22;24016;52.102;11.584;2024-03-23T11:02:40;5.40;99.90
38209;DHT22;24016;52.102;11.584;2024-03-23T11:07:50;5.00;99.90
38209;DHT22;24016;52.102;11.584;2024-03-23T11:10:27;4.80;99.90
38209;DHT22;24016;52.102;11.584;2024-03-23T11:12:58;4.60;99.90
38209;DHT22;24016;52.102;11.584;2024-03-23T11:15:26;4.50;99.90
38209;DHT22;24016;52.102;11.584;2024-03-23T11:18:11;4.40;99.90
38209;DHT22;24016;52.102;11.584;2024-03-23T11:20:45;4.40;99.90
38209;DHT22;24016;52.102;11.584;2024-03-23T11:23:27;4.50;99.90
38209;DHT22;24016;52.102;11.584;2024-03-23T11:25:52;4.70;99.90
38209;DHT22;24016;52.102;11.584;2024-03-23T11:28:18;5.00;99.90
38209;DHT22;24016;52.102;11.584;2024-03-23T11:30:43;5.40;99.90
38209;DHT22;24016;52.102;11.584;2024-03-23T11:33:09;5.90;99.90
38209;DHT22;24016;52.102;11.584;2024-03-23T11:35:38;6.30;99.90
38209;DHT22;24016;52.102;11.584;2024-03-23T11:38:09;6.80;99.90
38209;DHT22;24016;52.102;11.584;2024-03-23T11:40:37;7.50;99.90
38209;DHT22;24016;52.102;11.584;2024-03-23T11:43:04;8.40;99.90
38209;DHT22;24016;52.102;11.584;2024-03-23T11:46:03;9.00;99.90
38209;DHT22;24016;52.102;11.584;2024-03-23T11:48:28;10.50;99.90
38209;DHT22;24016;52.102;11.584;2024-03-23T11:50:56;10.80;99.90
38209;DHT22;24016;52.102;11.584;2024-03-23T11:53:24;11.30;99.90
38209;DHT22;24016;52.102;11.584;2024-03-23T11:55:56;11.00;99.90
38209;DHT22;24016;52.102;11.584;2024-03-23T11:58:26;10.60;99.90
38209;DHT22;24016;52.102;11.584;2024-03-23T12:00:57;10.00;99.90
38209;DHT22;24016;52.102;11.584;2024-03-23T12:03:23;9.50;99.90
38209;DHT22;24016;52.102;11.584;2024-03-23T12:05:52;8.90;99.90
38209;DHT22;24016;52.102;11.584;2024-03-23T12:08:23;8.10;99.90
38209;DHT22;24016;52.102;11.584;2024-03-23T12:10:51;7.50;99.90
38209;DHT22;24016;52.102;11.584;2024-03-23T12:13:21;7.30;99.90
38209;DHT22;24016;52.102;11.584;2024-03-23T12:15:49;7.30;99.90
38209;DHT22;24016;52.102;11.584;2024-03-23T12:18:15;7.20;99.90
38209;DHT22;24016;52.102;11.584;2024-03-23T12:20:41;7.20;99.90
38209;DHT22;24016;52.102;11.584;2024-03-23T12:23:07;6.70;99.90
38209;DHT22;24016;52.102;11.584;2024-03-23T12:25:35;6.60;99.90
38209;DHT22;24016;52.102;11.584;2024-03-23T12:28:01;6.40;99.90
38209;DHT22;24016;52.102;11.584;2024-03-23T12:30:27;6.20;99.90
38209;DHT22;24016;52.102;11.584;2024-03-23T12:32:53;6.10;99.90
38209;DHT22;24016;52.102;11.584;2024-03-23T12:35:18;5.90;99.90
38209;DHT22;24016;52.102;11.584;2024-03-23T12:37:44;5.70;99.90
38209;DHT22;24016;52.102;11.584;2024-03-23T12:40:10;5.50;99.90
38209;DHT22;24016;52.102;11.584;2024-03-23T12:42:36;5.40;99.90
38209;DHT22;24016;52.102;11.584;2024-03-23T12:45:02;5.90;99.90
38209;DHT22;24016;52.102;11.584;2024-03-23T12:47:30;7.30;99.90
38209;DHT22;24016;52.102;11.584;2024-03-23T12:49:56;8.50;99.90
38209;DHT22;24016;52.102;11.584;2024-03-23T12:52:21;9.80;99.90
38209;DHT22;24016;52.102;11.584;2024-03-23T12:54:49;10.50;99.90
38209;DHT22;24016;52.102;11.584;2024-03-23T12:57:14;11.00;99.90
38209;DHT22;24016;52.102;11.584;2024-03-23T12:59:40;10.60;99.90
38209;DHT22;24016;52.102;11.584;2024-03-23T13:02:05;10.30;99.90
38209;DHT22;24016;52.102;11.584;2024-03-23T13:04:32;10.00;99.90
38209;DHT22;24016;52.102;11.584;2024-03-23T13:06:58;9.70;99.90
38209;DHT22;24016;52.102;11.584;2024-03-23T13:09:23;9.40;99.90
38209;DHT22;24016;52.102;11.584;2024-03-23T13:11:49;8.70;99.90
38209;DHT22;24016;52.102;11.584;2024-03-23T13:14:14;8.10;99.90
38209;DHT22;24016;52.102;11.584;2024-03-23T13:16:42;7.60;99.90
38209;DHT22;24016;52.102;11.584;2024-03-23T13:19:07;7.20;99.90
38209;DHT22;24016;52.102;11.584;2024-03-23T13:21:33;6.70;99.90
38209;DHT22;24016;52.102;11.584;2024-03-23T13:23:58;6.20;99.90
38209;DHT22;24016;52.102;11.584;2024-03-23T13:26:24;6.00;99.90
38209;DHT22;24016;52.102;11.584;2024-03-23T13:28:49;6.30;99.90
38209;DHT22;24016;52.102;11.584;2024-03-23T13:31:15;6.60;99.90
38209;DHT22;24016;52.102;11.584;2024-03-23T13:33:40;6.70;99.90
38209;DHT22;24016;52.102;11.584;2024-03-23T13:36:07;6.40;99.90
38209;DHT22;24016;52.102;11.584;2024-03-23T13:38:33;6.20;99.90
38209;DHT22;24016;52.102;11.584;2024-03-23T13:40:59;6.00;99.90
38209;DHT22;24016;52.102;11.584;2024-03-23T13:43:26;5.90;99.90
38209;DHT22;24016;52.102;11.584;2024-03-23T13:45:57;5.90;99.90
38209;DHT22;24016;52.102;11.584;2024-03-23T13:48:24;5.50;99.90
38209;DHT22;24016;52.102;11.584;2024-03-23T13:51:00;5.30;99.90
38209;DHT22;24016;52.102;11.584;2024-03-23T13:53:26;5.10;99.90
38209;DHT22;24016;52.102;11.584;2024-03-23T13:55:51;5.10;99.90
38209;DHT22;24016;52.102;11.584;2024-03-23T13:58:17;5.10;99.90
38209;DHT22;24016;52.102;11.584;2024-03-23T14:00:43;5.30;99.90
38209;DHT22;24016;52.102;11.584;2024-03-23T14:03:12;5.40;99.90
38209;DHT22;24016;52.102;11.584;2024-03-23T14:05:38;5.80;99.90
38209;DHT22;24016;52.102;11.584;2024-03-23T14:08:08;6.20;99.90
38209;DHT22;24016;52.102;11.584;2024-03-23T14:10:33;6.40;99.90
38209;DHT22;24016;52.102;11.584;2024-03-23T14:12:59;6.50;99.90
38209;DHT22;24016;52.102;11.584;2024-03-23T14:15:26;6.40;99.90
38209;DHT22;24016;52.102;11.584;2024-03-23T14:17:52;6.30;99.90
38209;DHT22;24016;52.102;11.584;2024-03-23T14:20:17;6.30;99.90
38209;DHT22;24016;52.102;11.584;2024-03-23T14:22:43;6.30;99.90
38209;DHT22;24016;52.102;11.584;2024-03-23T14:25:10;6.10;99.90
38209;DHT22;24016;52.102;11.584;2024-03-23T14:27:35;6.10;99.90
38209;DHT22;24016;52.102;11.584;2024-03-23T14:30:04;6.00;99.90
38209;DHT22;24016;52.102;11.584;2024-03-23T14:32:30;5.90;99.90
38209;DHT22;24016;52.102;11.584;2024-03-23T14:35:00;5.80;99.90
38209;DHT22;24016;52.102;11.584;2024-03-23T14:37:25;5.70;99.90
38209;DHT22;24016;52.102;11.584;2024-03-23T14:39:51;5.50;99.90
38209;DHT22;24016;52.102;11.584;2024-03-23T14:42:17;5.30;99.90
38209;DHT22;24016;52.102;11.584;2024-03-23T14:44:42;4.90;99.90
38209;DHT22;24016;52.102;11.584;2024-03-23T14:47:10;4.80;99.90
38209;DHT22;24016;52.102;11.584;2024-03-23T14:49:36;4.60;99.90
38209;DHT22;24016;52.102;11.584;2024-03-23T14:52:02;4.40;99.90
38209;DHT22;24016;52.102;11.584;2024-03-23T14:54:28;4.20;99.90
38209;DHT22;24016;52.102;11.584;2024-03-23T14:56:53;4.10;99.90
38209;DHT22;24016;52.102;11.584;2024-03-23T14:59:19;3.90;99.90
38209;DHT22;24016;52.102;11.584;2024-03-23T15:01:46;3.90;99.90
38209;DHT22;24016;52.102;11.584;2024-03-23T15:04:11;4.00;99.90
38209;DHT22;24016;52.102;11.584;2024-03-23T15:06:37;4.20;99.90
38209;DHT22;24016;52.102;11.584;2024-03-23T15:09:02;4.40;99.90
38209;DHT22;24016;52.102;11.584;2024-03-23T15:11:32;4.70;99.90
38209;DHT22;24016;52.102;11.584;2024-03-23T15:13:58;4.80;99.90
38209;DHT22;24016;52.102;11.584;2024-03-23T15:16:23;4.90;99.90
38209;DHT22;24016;52.102;11.584;2024-03-23T15:18:49;4.80;99.90
38209;DHT22;24016;52.102;11.584;2024-03-23T15:21:15;4.70;99.90
38209;DHT22;24016;52.102;11.584;2024-03-23T15:23:45;4.70;99.90
38209;DHT22;24016;52.102;11.584;2024-03-23T15:26:11;4.70;99.90
38209;DHT22;24016;52.102;11.584;2024-03-23T15:28:36;4.90;99.90
38209;DHT22;24016;52.102;11.584;2024-03-23T15:31:20;5.10;99.90
38209;DHT22;24016;52.102;11.584;2024-03-23T15:33:46;5.00;99.90
38209;DHT22;24016;52.102;11.584;2024-03-23T15:36:11;5.00;99.90
38209;DHT22;24016;52.102;11.584;2024-03-23T15:38:37;4.90;99.90
38209;DHT22;24016;52.102;11.584;2024-03-23T15:41:04;4.90;99.90
38209;DHT22;24016;52.102;11.584;2024-03-23T15:43:30;4.90;99.90
38209;DHT22;24016;52.102;11.584;2024-03-23T15:45:57;4.80;99.90
38209;DHT22;24016;52.102;11.584;2024-03-23T15:48:25;4.70;99.90
38209;DHT22;24016;52.102;11.584;2024-03-23T15:50:53;4.70;99.90
38209;DHT22;24016;52.102;11.584;2024-03-23T15:53:19;4.60;99.90
38209;DHT22;24016;52.102;11.584;2024-03-23T15:55:45;4.50;99.90
38209;DHT22;24016;52.102;11.584;2024-03-23T15:58:11;4.50;99.90
38209;DHT22;24016;52.102;11.584;2024-03-23T16:00:36;4.40;99.90
38209;DHT22;24016;52.102;11.584;2024-03-23T16:03:02;4.40;99.90
38209;DHT22;24016;52.102;11.584;2024-03-23T16:05:27;4.40;99.90
38209;DHT22;24016;52.102;11.584;2024-03-23T16:07:53;4.50;99.90
38209;DHT22;24016;52.102;11.584;2024-03-23T16:10:19;4.70;99.90
38209;DHT22;24016;52.102;11.584;2024-03-23T16:12:44;4.90;99.90
38209;DHT22;24016;52.102;11.584;2024-03-23T16:15:10;5.10;99.90
38209;DHT22;24016;52.102;11.584;2024-03-23T16:17:35;5.10;99.90
38209;DHT22;24016;52.102;11.584;2024-03-23T16:20:03;5.20;99.90
38209;DHT22;24016;52.102;11.584;2024-03-23T16:22:28;5.20;99.90